sensor_id;sensor_type;location;lat;lon;timestamp;temperature;humidity
27803;DHT22;15182;48.174;11.562;2022-11-12T00:01:38;12.10;97.40
27803;DHT22;15182;48.174;11.562;2022-11-12T00:04:28;12.10;97.40
27803;DHT22;15182;48.174;11.562;2022-11-12T00:07:19;12.10;97.40
27803;DHT22;15182;48.174;11.562;2022-11-12T00:10:07;12.10;97.50
27803;DHT22;15182;48.174;11.562;2022-11-12T00:12:57;12.00;97.40
27803;DHT22;15182;48.174;11.562;2022-11-12T00:15:47;12.00;97.30
27803;DHT22;15182;48.174;11.562;2022-11-12T00:18:39;12.00;97.30
27803;DHT22;15182;48.174;11.562;2022-11-12T00:21:28;12.00;97.20
27803;DHT22;15182;48.174;11.562;2022-11-12T00:24:19;11.90;97.20
27803;DHT22;15182;48.174;11.562;2022-11-12T00:27:09;11.90;97.10
27803;DHT22;15182;48.174;11.562;2022-11-12T00:29:58;11.90;97.00
27803;DHT22;15182;48.174;11.562;2022-11-12T00:32:48;11.90;96.90
27803;DHT22;15182;48.174;11.562;2022-11-12T00:35:39;11.80;96.80
27803;DHT22;15182;48.174;11.562;2022-11-12T00:38:31;11.80;96.70
27803;DHT22;15182;48.174;11.562;2022-11-12T00:41:22;11.70;96.60
27803;DHT22;15182;48.174;11.562;2022-11-12T00:44:11;11.70;96.60
27803;DHT22;15182;48.174;11.562;2022-11-12T00:47:01;11.70;96.50
27803;DHT22;15182;48.174;11.562;2022-11-12T00:49:50;11.60;96.40
27803;DHT22;15182;48.174;11.562;2022-11-12T00:52:42;11.60;96.40
27803;DHT22;15182;48.174;11.562;2022-11-12T00:55:32;11.50;96.30
27803;DHT22;15182;48.174;11.562;2022-11-12T00:58:23;11.50;96.30
27803;DHT22;15182;48.174;11.562;2022-11-12T01:01:17;11.50;96.30
27803;DHT22;15182;48.174;11.562;2022-11-12T01:04:07;11.40;96.20
27803;DHT22;15182;48.174;11.562;2022-11-12T01:06:56;11.40;96.30
27803;DHT22;15182;48.174;11.562;2022-11-12T01:09:48;11.40;96.30
27803;DHT22;15182;48.174;11.562;2022-11-12T01:12:37;11.30;96.40
27803;DHT22;15182;48.174;11.562;2022-11-12T01:15:28;11.30;96.40
27803;DHT22;15182;48.174;11.562;2022-11-12T01:18:18;11.30;96.50
27803;DHT22;15182;48.174;11.562;2022-11-12T01:21:08;11.20;96.50
27803;DHT22;15182;48.174;11.562;2022-11-12T01:24:00;11.20;96.50
27803;DHT22;15182;48.174;11.562;2022-11-12T01:26:51;11.20;96.60
27803;DHT22;15182;48.174;11.562;2022-11-12T01:29:41;11.20;96.60
27803;DHT22;15182;48.174;11.562;2022-11-12T01:32:33;11.20;96.70
27803;DHT22;15182;48.174;11.562;2022-11-12T01:35:23;11.20;96.70
27803;DHT22;15182;48.174;11.562;2022-11-12T01:38:12;11.20;96.60
27803;DHT22;15182;48.174;11.562;2022-11-12T01:41:02;11.10;96.50
27803;DHT22;15182;48.174;11.562;2022-11-12T01:44:06;11.10;96.60
27803;DHT22;15182;48.174;11.562;2022-11-12T01:47:02;11.10;96.60
27803;DHT22;15182;48.174;11.562;2022-11-12T01:50:00;11.10;96.60
27803;DHT22;15182;48.174;11.562;2022-11-12T01:53:02;11.10;96.60
27803;DHT22;15182;48.174;11.562;2022-11-12T01:55:57;11.10;96.50
27803;DHT22;15182;48.174;11.562;2022-11-12T01:58:50;11.10;96.40
27803;DHT22;15182;48.174;11.562;2022-11-12T02:01:42;11.10;96.40
27803;DHT22;15182;48.174;11.562;2022-11-12T02:04:32;11.10;96.40
27803;DHT22;15182;48.174;11.562;2022-11-12T02:07:24;11.10;96.40
27803;DHT22;15182;48.174;11.562;2022-11-12T02:10:14;11.00;96.30
27803;DHT22;15182;48.174;11.562;2022-11-12T02:13:05;11.00;96.30
27803;DHT22;15182;48.174;11.562;2022-11-12T02:16:13;11.00;96.30
27803;DHT22;15182;48.174;11.562;2022-11-12T02:19:07;11.00;96.30
27803;DHT22;15182;48.174;11.562;2022-11-12T02:22:00;10.90;96.30
27803;DHT22;15182;48.174;11.562;2022-11-12T02:24:49;10.90;96.30
27803;DHT22;15182;48.174;11.562;2022-11-12T02:27:39;10.90;96.30
27803;DHT22;15182;48.174;11.562;2022-11-12T02:30:34;10.90;96.40
27803;DHT22;15182;48.174;11.562;2022-11-12T02:33:25;10.90;96.30
27803;DHT22;15182;48.174;11.562;2022-11-12T02:36:14;10.90;96.30
27803;DHT22;15182;48.174;11.562;2022-11-12T02:39:05;10.90;96.30
27803;DHT22;15182;48.174;11.562;2022-11-12T02:41:55;10.80;96.30
27803;DHT22;15182;48.174;11.562;2022-11-12T02:44:45;10.80;96.30
27803;DHT22;15182;48.174;11.562;2022-11-12T02:47:34;10.80;96.40
27803;DHT22;15182;48.174;11.562;2022-11-12T02:50:24;10.80;96.30
27803;DHT22;15182;48.174;11.562;2022-11-12T02:53:14;10.80;96.30
27803;DHT22;15182;48.174;11.562;2022-11-12T02:56:06;10.80;96.30
27803;DHT22;15182;48.174;11.562;2022-11-12T02:58:55;10.80;96.30
27803;DHT22;15182;48.174;11.562;2022-11-12T03:01:45;10.80;96.20
27803;DHT22;15182;48.174;11.562;2022-11-12T03:04:35;10.80;96.50
27803;DHT22;15182;48.174;11.562;2022-11-12T03:07:24;10.80;96.20
27803;DHT22;15182;48.174;11.562;2022-11-12T03:10:14;10.70;96.10
27803;DHT22;15182;48.174;11.562;2022-11-12T03:13:05;10.70;96.10
27803;DHT22;15182;48.174;11.562;2022-11-12T03:16:00;10.70;96.10
27803;DHT22;15182;48.174;11.562;2022-11-12T03:18:52;10.70;96.20
27803;DHT22;15182;48.174;11.562;2022-11-12T03:21:42;10.70;96.20
27803;DHT22;15182;48.174;11.562;2022-11-12T03:24:31;10.70;96.20
27803;DHT22;15182;48.174;11.562;2022-11-12T03:27:20;10.60;96.20
27803;DHT22;15182;48.174;11.562;2022-11-12T03:30:12;10.60;96.10
27803;DHT22;15182;48.174;11.562;2022-11-12T03:33:02;10.60;96.10
27803;DHT22;15182;48.174;11.562;2022-11-12T03:35:53;10.50;96.10
27803;DHT22;15182;48.174;11.562;2022-11-12T03:38:43;10.50;96.50
27803;DHT22;15182;48.174;11.562;2022-11-12T03:41:32;10.50;96.10
27803;DHT22;15182;48.174;11.562;2022-11-12T03:44:22;10.50;96.10
27803;DHT22;15182;48.174;11.562;2022-11-12T03:47:13;10.50;96.10
27803;DHT22;15182;48.174;11.562;2022-11-12T03:50:03;10.50;96.10
27803;DHT22;15182;48.174;11.562;2022-11-12T03:52:54;10.40;96.50
27803;DHT22;15182;48.174;11.562;2022-11-12T03:55:46;10.40;96.10
27803;DHT22;15182;48.174;11.562;2022-11-12T03:58:35;10.40;96.10
27803;DHT22;15182;48.174;11.562;2022-11-12T04:01:25;10.40;96.10
27803;DHT22;15182;48.174;11.562;2022-11-12T04:04:16;10.40;96.20
27803;DHT22;15182;48.174;11.562;2022-11-12T04:07:07;10.30;96.10
27803;DHT22;15182;48.174;11.562;2022-11-12T04:10:14;10.30;96.10
27803;DHT22;15182;48.174;11.562;2022-11-12T04:13:04;10.30;96.10
27803;DHT22;15182;48.174;11.562;2022-11-12T04:16:13;10.30;96.20
27803;DHT22;15182;48.174;11.562;2022-11-12T04:19:31;10.30;96.20
27803;DHT22;15182;48.174;11.562;2022-11-12T04:22:39;10.20;96.30
27803;DHT22;15182;48.174;11.562;2022-11-12T04:25:29;10.20;96.30
27803;DHT22;15182;48.174;11.562;2022-11-12T04:28:39;10.20;96.30
27803;DHT22;15182;48.174;11.562;2022-11-12T04:31:49;10.20;96.30
27803;DHT22;15182;48.174;11.562;2022-11-12T04:34:41;10.20;96.30
27803;DHT22;15182;48.174;11.562;2022-11-12T04:37:32;10.20;96.30
27803;DHT22;15182;48.174;11.562;2022-11-12T04:40:30;10.20;96.70
27803;DHT22;15182;48.174;11.562;2022-11-12T04:43:38;10.10;96.40
27803;DHT22;15182;48.174;11.562;2022-11-12T04:46:46;10.10;96.40
27803;DHT22;15182;48.174;11.562;2022-11-12T04:49:35;10.10;96.40
27803;DHT22;15182;48.174;11.562;2022-11-12T04:52:27;10.10;96.40
27803;DHT22;15182;48.174;11.562;2022-11-12T04:55:17;10.10;96.40
27803;DHT22;15182;48.174;11.562;2022-11-12T04:58:06;10.00;96.40
27803;DHT22;15182;48.174;11.562;2022-11-12T05:00:56;10.10;96.50
27803;DHT22;15182;48.174;11.562;2022-11-12T05:03:47;10.10;96.60
27803;DHT22;15182;48.174;11.562;2022-11-12T05:06:37;10.00;96.60
27803;DHT22;15182;48.174;11.562;2022-11-12T05:09:41;10.00;96.60
27803;DHT22;15182;48.174;11.562;2022-11-12T05:12:31;10.00;96.70
27803;DHT22;15182;48.174;11.562;2022-11-12T05:15:25;10.00;96.70
27803;DHT22;15182;48.174;11.562;2022-11-12T05:18:15;10.10;96.80
27803;DHT22;15182;48.174;11.562;2022-11-12T05:21:04;10.10;96.90
27803;DHT22;15182;48.174;11.562;2022-11-12T05:24:08;10.10;97.20
27803;DHT22;15182;48.174;11.562;2022-11-12T05:26:59;10.00;96.90
27803;DHT22;15182;48.174;11.562;2022-11-12T05:29:49;10.00;96.90
27803;DHT22;15182;48.174;11.562;2022-11-12T05:32:38;10.00;97.00
27803;DHT22;15182;48.174;11.562;2022-11-12T05:35:28;10.10;97.10
27803;DHT22;15182;48.174;11.562;2022-11-12T05:38:18;10.00;97.10
27803;DHT22;15182;48.174;11.562;2022-11-12T05:41:07;10.00;97.10
27803;DHT22;15182;48.174;11.562;2022-11-12T05:43:58;10.00;97.00
27803;DHT22;15182;48.174;11.562;2022-11-12T05:46:47;10.00;97.00
27803;DHT22;15182;48.174;11.562;2022-11-12T05:49:37;10.00;97.00
27803;DHT22;15182;48.174;11.562;2022-11-12T05:52:26;9.90;97.00
27803;DHT22;15182;48.174;11.562;2022-11-12T05:55:16;9.90;97.00
27803;DHT22;15182;48.174;11.562;2022-11-12T05:58:06;9.90;97.00
27803;DHT22;15182;48.174;11.562;2022-11-12T06:00:58;9.90;97.10
27803;DHT22;15182;48.174;11.562;2022-11-12T06:03:48;9.90;97.20
27803;DHT22;15182;48.174;11.562;2022-11-12T06:06:37;9.90;97.20
27803;DHT22;15182;48.174;11.562;2022-11-12T06:09:27;9.90;97.20
27803;DHT22;15182;48.174;11.562;2022-11-12T06:12:16;9.90;97.20
27803;DHT22;15182;48.174;11.562;2022-11-12T06:15:07;9.90;97.20
27803;DHT22;15182;48.174;11.562;2022-11-12T06:17:59;9.90;97.50
27803;DHT22;15182;48.174;11.562;2022-11-12T06:20:49;9.90;97.20
27803;DHT22;15182;48.174;11.562;2022-11-12T06:23:54;9.90;97.10
27803;DHT22;15182;48.174;11.562;2022-11-12T06:26:44;9.90;97.20
27803;DHT22;15182;48.174;11.562;2022-11-12T06:29:33;9.90;97.20
27803;DHT22;15182;48.174;11.562;2022-11-12T06:32:24;9.90;97.20
27803;DHT22;15182;48.174;11.562;2022-11-12T06:35:16;9.80;97.10
27803;DHT22;15182;48.174;11.562;2022-11-12T06:38:05;9.80;97.10
27803;DHT22;15182;48.174;11.562;2022-11-12T06:40:55;9.80;97.00
27803;DHT22;15182;48.174;11.562;2022-11-12T06:43:45;9.70;97.10
27803;DHT22;15182;48.174;11.562;2022-11-12T06:46:35;9.70;97.20
27803;DHT22;15182;48.174;11.562;2022-11-12T06:49:24;9.70;97.20
27803;DHT22;15182;48.174;11.562;2022-11-12T06:52:16;9.70;97.30
27803;DHT22;15182;48.174;11.562;2022-11-12T06:55:07;9.70;97.30
27803;DHT22;15182;48.174;11.562;2022-11-12T06:57:57;9.70;97.30
27803;DHT22;15182;48.174;11.562;2022-11-12T07:00:47;9.70;97.40
27803;DHT22;15182;48.174;11.562;2022-11-12T07:03:37;9.70;97.40
27803;DHT22;15182;48.174;11.562;2022-11-12T07:06:27;9.70;97.20
27803;DHT22;15182;48.174;11.562;2022-11-12T07:09:19;9.70;97.20
27803;DHT22;15182;48.174;11.562;2022-11-12T07:12:08;9.70;97.20
27803;DHT22;15182;48.174;11.562;2022-11-12T07:14:58;9.60;97.20
27803;DHT22;15182;48.174;11.562;2022-11-12T07:17:48;9.60;97.30
27803;DHT22;15182;48.174;11.562;2022-11-12T07:20:38;9.50;97.40
27803;DHT22;15182;48.174;11.562;2022-11-12T07:23:29;9.50;97.40
27803;DHT22;15182;48.174;11.562;2022-11-12T07:26:23;9.50;97.50
27803;DHT22;15182;48.174;11.562;2022-11-12T07:29:14;9.60;97.50
27803;DHT22;15182;48.174;11.562;2022-11-12T07:32:04;9.60;97.60
27803;DHT22;15182;48.174;11.562;2022-11-12T07:34:54;9.60;97.60
27803;DHT22;15182;48.174;11.562;2022-11-12T07:37:43;9.60;97.70
27803;DHT22;15182;48.174;11.562;2022-11-12T07:40:33;9.60;97.70
27803;DHT22;15182;48.174;11.562;2022-11-12T07:43:23;9.70;97.70
27803;DHT22;15182;48.174;11.562;2022-11-12T07:46:16;9.70;97.80
27803;DHT22;15182;48.174;11.562;2022-11-12T07:49:06;9.80;97.80
27803;DHT22;15182;48.174;11.562;2022-11-12T07:51:56;9.80;97.80
27803;DHT22;15182;48.174;11.562;2022-11-12T07:54:45;9.80;97.70
27803;DHT22;15182;48.174;11.562;2022-11-12T07:57:35;9.80;97.70
27803;DHT22;15182;48.174;11.562;2022-11-12T08:00:26;9.90;97.60
27803;DHT22;15182;48.174;11.562;2022-11-12T08:03:15;9.90;97.70
27803;DHT22;15182;48.174;11.562;2022-11-12T08:06:05;9.90;97.70
27803;DHT22;15182;48.174;11.562;2022-11-12T08:08:57;9.90;97.70
27803;DHT22;15182;48.174;11.562;2022-11-12T08:11:47;9.90;97.70
27803;DHT22;15182;48.174;11.562;2022-11-12T08:14:39;9.90;97.80
27803;DHT22;15182;48.174;11.562;2022-11-12T08:17:30;9.90;97.80
27803;DHT22;15182;48.174;11.562;2022-11-12T08:20:20;9.90;97.90
27803;DHT22;15182;48.174;11.562;2022-11-12T08:23:09;9.90;97.80
27803;DHT22;15182;48.174;11.562;2022-11-12T08:26:00;9.90;97.80
27803;DHT22;15182;48.174;11.562;2022-11-12T08:28:50;9.90;97.90
27803;DHT22;15182;48.174;11.562;2022-11-12T08:31:40;10.00;98.00
27803;DHT22;15182;48.174;11.562;2022-11-12T08:34:30;10.00;98.00
27803;DHT22;15182;48.174;11.562;2022-11-12T08:37:21;10.00;98.10
27803;DHT22;15182;48.174;11.562;2022-11-12T08:40:10;10.00;98.00
27803;DHT22;15182;48.174;11.562;2022-11-12T08:43:02;10.10;98.00
27803;DHT22;15182;48.174;11.562;2022-11-12T08:45:53;10.10;98.00
27803;DHT22;15182;48.174;11.562;2022-11-12T08:48:43;10.10;98.00
27803;DHT22;15182;48.174;11.562;2022-11-12T08:51:35;10.10;98.10
27803;DHT22;15182;48.174;11.562;2022-11-12T08:54:24;10.10;98.20
27803;DHT22;15182;48.174;11.562;2022-11-12T08:57:14;10.20;98.20
27803;DHT22;15182;48.174;11.562;2022-11-12T09:00:05;10.20;98.20
27803;DHT22;15182;48.174;11.562;2022-11-12T09:02:57;10.20;98.20
27803;DHT22;15182;48.174;11.562;2022-11-12T09:05:48;10.20;98.10
27803;DHT22;15182;48.174;11.562;2022-11-12T09:08:40;10.20;98.20
27803;DHT22;15182;48.174;11.562;2022-11-12T09:11:30;10.20;98.20
27803;DHT22;15182;48.174;11.562;2022-11-12T09:14:20;10.30;98.30
27803;DHT22;15182;48.174;11.562;2022-11-12T09:17:10;10.30;98.30
27803;DHT22;15182;48.174;11.562;2022-11-12T09:19:59;10.30;98.30
27803;DHT22;15182;48.174;11.562;2022-11-12T09:22:49;10.30;98.30
27803;DHT22;15182;48.174;11.562;2022-11-12T09:25:40;10.40;98.40
27803;DHT22;15182;48.174;11.562;2022-11-12T09:28:30;10.40;98.40
27803;DHT22;15182;48.174;11.562;2022-11-12T09:31:19;10.40;98.50
27803;DHT22;15182;48.174;11.562;2022-11-12T09:34:10;10.40;98.50
27803;DHT22;15182;48.174;11.562;2022-11-12T09:37:00;10.50;98.50
27803;DHT22;15182;48.174;11.562;2022-11-12T09:39:49;10.50;98.60
27803;DHT22;15182;48.174;11.562;2022-11-12T09:42:41;10.50;98.70
27803;DHT22;15182;48.174;11.562;2022-11-12T09:45:33;10.60;98.70
27803;DHT22;15182;48.174;11.562;2022-11-12T09:48:26;10.60;98.70
27803;DHT22;15182;48.174;11.562;2022-11-12T09:51:26;10.70;98.80
27803;DHT22;15182;48.174;11.562;2022-11-12T09:54:21;10.70;98.80
27803;DHT22;15182;48.174;11.562;2022-11-12T09:57:13;10.80;98.80
27803;DHT22;15182;48.174;11.562;2022-11-12T10:00:05;10.80;98.80
27803;DHT22;15182;48.174;11.562;2022-11-12T10:03:04;10.90;98.80
27803;DHT22;15182;48.174;11.562;2022-11-12T10:05:59;11.00;98.90
27803;DHT22;15182;48.174;11.562;2022-11-12T10:08:54;11.10;99.00
27803;DHT22;15182;48.174;11.562;2022-11-12T10:11:57;11.10;99.00
27803;DHT22;15182;48.174;11.562;2022-11-12T10:15:19;11.20;98.90
27803;DHT22;15182;48.174;11.562;2022-11-12T10:18:42;11.30;98.90
27803;DHT22;15182;48.174;11.562;2022-11-12T10:21:40;11.40;98.80
27803;DHT22;15182;48.174;11.562;2022-11-12T10:24:35;11.40;98.60
27803;DHT22;15182;48.174;11.562;2022-11-12T10:27:31;11.50;98.80
27803;DHT22;15182;48.174;11.562;2022-11-12T10:30:25;11.50;98.80
27803;DHT22;15182;48.174;11.562;2022-11-12T10:33:16;11.60;98.80
27803;DHT22;15182;48.174;11.562;2022-11-12T10:36:21;11.70;98.90
27803;DHT22;15182;48.174;11.562;2022-11-12T10:39:28;11.90;99.00
27803;DHT22;15182;48.174;11.562;2022-11-12T10:42:20;12.00;98.90
27803;DHT22;15182;48.174;11.562;2022-11-12T10:45:21;12.20;98.80
27803;DHT22;15182;48.174;11.562;2022-11-12T10:48:20;12.30;98.70
27803;DHT22;15182;48.174;11.562;2022-11-12T10:51:24;12.50;98.80
27803;DHT22;15182;48.174;11.562;2022-11-12T10:54:27;12.70;98.60
27803;DHT22;15182;48.174;11.562;2022-11-12T10:57:21;12.80;98.30
27803;DHT22;15182;48.174;11.562;2022-11-12T11:00:17;13.00;98.20
27803;DHT22;15182;48.174;11.562;2022-11-12T11:03:18;13.10;98.00
27803;DHT22;15182;48.174;11.562;2022-11-12T11:06:21;13.30;98.10
27803;DHT22;15182;48.174;11.562;2022-11-12T11:09:17;13.40;97.90
27803;DHT22;15182;48.174;11.562;2022-11-12T11:12:21;13.60;97.80
27803;DHT22;15182;48.174;11.562;2022-11-12T11:15:20;13.70;97.50
27803;DHT22;15182;48.174;11.562;2022-11-12T11:18:13;13.80;97.30
27803;DHT22;15182;48.174;11.562;2022-11-12T11:21:07;13.90;97.30
27803;DHT22;15182;48.174;11.562;2022-11-12T11:24:11;14.00;97.30
27803;DHT22;15182;48.174;11.562;2022-11-12T11:27:17;14.10;97.10
27803;DHT22;15182;48.174;11.562;2022-11-12T11:30:14;14.20;96.90
27803;DHT22;15182;48.174;11.562;2022-11-12T11:33:38;14.20;96.90
27803;DHT22;15182;48.174;11.562;2022-11-12T11:36:38;14.30;96.50
27803;DHT22;15182;48.174;11.562;2022-11-12T11:39:38;14.30;96.50
27803;DHT22;15182;48.174;11.562;2022-11-12T11:42:51;14.30;96.40
27803;DHT22;15182;48.174;11.562;2022-11-12T11:46:01;14.30;96.40
27803;DHT22;15182;48.174;11.562;2022-11-12T11:52:44;14.20;96.30
27803;DHT22;15182;48.174;11.562;2022-11-12T11:55:45;14.20;96.30
27803;DHT22;15182;48.174;11.562;2022-11-12T11:58:52;14.10;96.30
27803;DHT22;15182;48.174;11.562;2022-11-12T12:01:56;14.10;96.30
27803;DHT22;15182;48.174;11.562;2022-11-12T12:04:57;14.00;96.30
27803;DHT22;15182;48.174;11.562;2022-11-12T12:07:59;14.00;96.40
27803;DHT22;15182;48.174;11.562;2022-11-12T12:10:55;13.90;96.30
27803;DHT22;15182;48.174;11.562;2022-11-12T12:13:59;13.80;96.30
27803;DHT22;15182;48.174;11.562;2022-11-12T12:17:03;13.70;96.30
27803;DHT22;15182;48.174;11.562;2022-11-12T12:20:02;13.70;96.30
27803;DHT22;15182;48.174;11.562;2022-11-12T12:23:01;13.60;96.40
27803;DHT22;15182;48.174;11.562;2022-11-12T12:25:55;13.60;96.40
27803;DHT22;15182;48.174;11.562;2022-11-12T12:28:52;13.50;96.40
27803;DHT22;15182;48.174;11.562;2022-11-12T12:31:50;13.40;96.50
27803;DHT22;15182;48.174;11.562;2022-11-12T12:34:44;13.40;96.60
27803;DHT22;15182;48.174;11.562;2022-11-12T12:37:43;13.40;96.70
27803;DHT22;15182;48.174;11.562;2022-11-12T12:40:37;13.30;96.70
27803;DHT22;15182;48.174;11.562;2022-11-12T12:43:34;13.30;96.70
27803;DHT22;15182;48.174;11.562;2022-11-12T12:46:28;13.30;96.90
27803;DHT22;15182;48.174;11.562;2022-11-12T12:49:25;13.30;96.90
27803;DHT22;15182;48.174;11.562;2022-11-12T12:52:17;13.20;96.90
27803;DHT22;15182;48.174;11.562;2022-11-12T12:55:32;13.20;96.90
27803;DHT22;15182;48.174;11.562;2022-11-12T12:58:25;13.20;97.10
27803;DHT22;15182;48.174;11.562;2022-11-12T13:01:29;13.20;97.10
27803;DHT22;15182;48.174;11.562;2022-11-12T13:04:52;13.20;97.00
27803;DHT22;15182;48.174;11.562;2022-11-12T13:07:43;13.20;97.00
27803;DHT22;15182;48.174;11.562;2022-11-12T13:10:46;13.20;97.10
27803;DHT22;15182;48.174;11.562;2022-11-12T13:13:37;13.20;97.20
27803;DHT22;15182;48.174;11.562;2022-11-12T13:16:56;13.20;97.10
27803;DHT22;15182;48.174;11.562;2022-11-12T13:20:14;13.20;97.20
27803;DHT22;15182;48.174;11.562;2022-11-12T13:23:49;13.20;97.20
27803;DHT22;15182;48.174;11.562;2022-11-12T13:26:59;13.20;97.20
27803;DHT22;15182;48.174;11.562;2022-11-12T13:29:48;13.20;97.20
27803;DHT22;15182;48.174;11.562;2022-11-12T13:32:40;13.20;97.20
27803;DHT22;15182;48.174;11.562;2022-11-12T13:35:31;13.20;97.20
27803;DHT22;15182;48.174;11.562;2022-11-12T13:38:22;13.20;97.30
27803;DHT22;15182;48.174;11.562;2022-11-12T13:41:16;13.10;97.30
27803;DHT22;15182;48.174;11.562;2022-11-12T13:44:30;13.10;97.30
27803;DHT22;15182;48.174;11.562;2022-11-12T13:47:22;13.10;97.40
27803;DHT22;15182;48.174;11.562;2022-11-12T13:50:16;13.10;97.40
27803;DHT22;15182;48.174;11.562;2022-11-12T13:53:09;13.10;97.40
27803;DHT22;15182;48.174;11.562;2022-11-12T13:56:04;13.10;97.50
27803;DHT22;15182;48.174;11.562;2022-11-12T13:59:07;13.10;97.50
27803;DHT22;15182;48.174;11.562;2022-11-12T14:02:04;13.10;97.50
27803;DHT22;15182;48.174;11.562;2022-11-12T14:05:08;13.10;97.50
27803;DHT22;15182;48.174;11.562;2022-11-12T14:08:26;13.10;97.60
27803;DHT22;15182;48.174;11.562;2022-11-12T14:11:36;13.10;97.60
27803;DHT22;15182;48.174;11.562;2022-11-12T14:14:44;13.10;97.60
27803;DHT22;15182;48.174;11.562;2022-11-12T14:17:49;13.10;97.70
27803;DHT22;15182;48.174;11.562;2022-11-12T14:20:43;13.10;97.70
27803;DHT22;15182;48.174;11.562;2022-11-12T14:23:33;13.10;97.60
27803;DHT22;15182;48.174;11.562;2022-11-12T14:26:37;13.10;97.60
27803;DHT22;15182;48.174;11.562;2022-11-12T14:29:29;13.10;97.70
27803;DHT22;15182;48.174;11.562;2022-11-12T14:32:19;13.10;97.70
27803;DHT22;15182;48.174;11.562;2022-11-12T14:35:32;13.10;97.70
27803;DHT22;15182;48.174;11.562;2022-11-12T14:38:24;13.00;97.80
27803;DHT22;15182;48.174;11.562;2022-11-12T14:41:20;13.00;97.80
27803;DHT22;15182;48.174;11.562;2022-11-12T14:44:14;13.00;97.80
27803;DHT22;15182;48.174;11.562;2022-11-12T14:47:07;12.90;97.80
27803;DHT22;15182;48.174;11.562;2022-11-12T14:49:58;12.90;97.90
27803;DHT22;15182;48.174;11.562;2022-11-12T14:52:51;12.90;97.90
27803;DHT22;15182;48.174;11.562;2022-11-12T14:55:49;12.90;98.00
27803;DHT22;15182;48.174;11.562;2022-11-12T14:58:41;12.80;98.00
27803;DHT22;15182;48.174;11.562;2022-11-12T15:01:34;12.80;98.00
27803;DHT22;15182;48.174;11.562;2022-11-12T15:04:24;12.80;98.10
27803;DHT22;15182;48.174;11.562;2022-11-12T15:07:27;12.80;98.10
27803;DHT22;15182;48.174;11.562;2022-11-12T15:10:35;12.70;98.20
27803;DHT22;15182;48.174;11.562;2022-11-12T15:13:27;12.70;98.40
27803;DHT22;15182;48.174;11.562;2022-11-12T15:16:28;12.70;98.30
27803;DHT22;15182;48.174;11.562;2022-11-12T15:19:21;12.60;98.30
27803;DHT22;15182;48.174;11.562;2022-11-12T15:22:20;12.60;98.40
27803;DHT22;15182;48.174;11.562;2022-11-12T15:25:22;12.60;98.50
27803;DHT22;15182;48.174;11.562;2022-11-12T15:28:21;12.50;98.60
27803;DHT22;15182;48.174;11.562;2022-11-12T15:31:18;12.50;98.70
27803;DHT22;15182;48.174;11.562;2022-11-12T15:34:27;12.50;98.70
27803;DHT22;15182;48.174;11.562;2022-11-12T15:37:25;12.40;98.80
27803;DHT22;15182;48.174;11.562;2022-11-12T15:40:18;12.40;98.80
27803;DHT22;15182;48.174;11.562;2022-11-12T15:43:14;12.40;98.80
27803;DHT22;15182;48.174;11.562;2022-11-12T15:46:13;12.40;98.90
27803;DHT22;15182;48.174;11.562;2022-11-12T15:49:06;12.30;99.00
27803;DHT22;15182;48.174;11.562;2022-11-12T15:51:59;12.30;98.90
27803;DHT22;15182;48.174;11.562;2022-11-12T15:54:49;12.30;99.00
27803;DHT22;15182;48.174;11.562;2022-11-12T15:57:43;12.30;99.10
27803;DHT22;15182;48.174;11.562;2022-11-12T16:00:37;12.30;99.20
27803;DHT22;15182;48.174;11.562;2022-11-12T16:03:27;12.20;99.20
27803;DHT22;15182;48.174;11.562;2022-11-12T16:06:18;12.20;99.20
27803;DHT22;15182;48.174;11.562;2022-11-12T16:09:08;12.20;99.20
27803;DHT22;15182;48.174;11.562;2022-11-12T16:11:57;12.20;99.30
27803;DHT22;15182;48.174;11.562;2022-11-12T16:14:47;12.20;99.30
27803;DHT22;15182;48.174;11.562;2022-11-12T16:17:38;12.20;99.40
27803;DHT22;15182;48.174;11.562;2022-11-12T16:20:30;12.20;99.40
27803;DHT22;15182;48.174;11.562;2022-11-12T16:23:21;12.20;99.50
27803;DHT22;15182;48.174;11.562;2022-11-12T16:26:17;12.20;99.50
27803;DHT22;15182;48.174;11.562;2022-11-12T16:29:12;12.20;99.90
27803;DHT22;15182;48.174;11.562;2022-11-12T16:32:02;12.20;99.60
27803;DHT22;15182;48.174;11.562;2022-11-12T16:34:54;12.20;99.60
27803;DHT22;15182;48.174;11.562;2022-11-12T16:37:44;12.20;99.70
27803;DHT22;15182;48.174;11.562;2022-11-12T16:40:34;12.10;99.70
27803;DHT22;15182;48.174;11.562;2022-11-12T16:43:24;12.10;99.70
27803;DHT22;15182;48.174;11.562;2022-11-12T16:46:14;12.10;99.70
27803;DHT22;15182;48.174;11.562;2022-11-12T16:49:08;12.10;99.80
27803;DHT22;15182;48.174;11.562;2022-11-12T16:52:00;12.00;99.80
27803;DHT22;15182;48.174;11.562;2022-11-12T16:54:51;12.00;99.90
27803;DHT22;15182;48.174;11.562;2022-11-12T16:57:40;12.00;99.80
27803;DHT22;15182;48.174;11.562;2022-11-12T17:00:30;12.00;99.90
27803;DHT22;15182;48.174;11.562;2022-11-12T17:03:20;12.00;99.90
27803;DHT22;15182;48.174;11.562;2022-11-12T17:06:09;12.00;99.90
27803;DHT22;15182;48.174;11.562;2022-11-12T17:09:00;12.00;99.80
27803;DHT22;15182;48.174;11.562;2022-11-12T17:11:50;11.90;99.90
27803;DHT22;15182;48.174;11.562;2022-11-12T17:14:40;11.90;99.90
27803;DHT22;15182;48.174;11.562;2022-11-12T17:17:29;11.90;99.90
27803;DHT22;15182;48.174;11.562;2022-11-12T17:20:19;11.90;99.90
27803;DHT22;15182;48.174;11.562;2022-11-12T17:23:08;11.80;99.90
27803;DHT22;15182;48.174;11.562;2022-11-12T17:26:04;11.80;99.90
27803;DHT22;15182;48.174;11.562;2022-11-12T17:28:57;11.80;99.90
27803;DHT22;15182;48.174;11.562;2022-11-12T17:31:48;11.80;99.90
27803;DHT22;15182;48.174;11.562;2022-11-12T17:34:38;11.70;99.90
27803;DHT22;15182;48.174;11.562;2022-11-12T17:37:27;11.70;99.90
27803;DHT22;15182;48.174;11.562;2022-11-12T17:40:17;11.70;99.90
27803;DHT22;15182;48.174;11.562;2022-11-12T17:43:08;11.70;99.90
27803;DHT22;15182;48.174;11.562;2022-11-12T17:45:58;11.70;99.90
27803;DHT22;15182;48.174;11.562;2022-11-12T17:48:48;11.70;99.90
27803;DHT22;15182;48.174;11.562;2022-11-12T17:51:38;11.70;99.90
27803;DHT22;15182;48.174;11.562;2022-11-12T17:54:30;11.70;99.90
27803;DHT22;15182;48.174;11.562;2022-11-12T17:57:19;11.70;99.90
27803;DHT22;15182;48.174;11.562;2022-11-12T18:00:14;11.70;99.90
27803;DHT22;15182;48.174;11.562;2022-11-12T18:03:05;11.70;99.90
27803;DHT22;15182;48.174;11.562;2022-11-12T18:05:59;11.70;99.90
27803;DHT22;15182;48.174;11.562;2022-11-12T18:08:54;11.60;99.90